sensor_id;sensor_type;location;lat;lon;timestamp;P1;P2;P0
78316;PMS7003;67572;50.930;18.276;2023-03-01T00:00:53;63.00;48.33;27.67
78316;PMS7003;67572;50.930;18.276;2023-03-01T00:03:58;42.00;37.33;21.00
78316;PMS7003;67572;50.930;18.276;2023-03-01T00:07:04;40.67;39.00;24.00
78316;PMS7003;67572;50.930;18.276;2023-03-01T00:10:11;53.67;45.00;27.67
78316;PMS7003;67572;50.930;18.276;2023-03-01T00:13:15;32.50;32.00;23.00
78316;PMS7003;67572;50.930;18.276;2023-03-01T00:16:21;45.00;42.67;28.00
78316;PMS7003;67572;50.930;18.276;2023-03-01T00:19:28;45.33;41.33;25.00
78316;PMS7003;67572;50.930;18.276;2023-03-01T00:22:32;63.00;49.00;28.67
78316;PMS7003;67572;50.930;18.276;2023-03-01T00:25:42;58.00;48.00;25.00
78316;PMS7003;67572;50.930;18.276;2023-03-01T00:28:46;39.00;36.67;21.00
78316;PMS7003;67572;50.930;18.276;2023-03-01T00:31:52;51.00;42.67;29.67
78316;PMS7003;67572;50.930;18.276;2023-03-01T00:34:58;55.00;45.00;27.33
78316;PMS7003;67572;50.930;18.276;2023-03-01T00:38:02;50.33;45.33;28.00
78316;PMS7003;67572;50.930;18.276;2023-03-01T00:41:10;52.00;45.33;27.33
78316;PMS7003;67572;50.930;18.276;2023-03-01T00:44:17;50.33;42.00;28.00
78316;PMS7003;67572;50.930;18.276;2023-03-01T00:47:23;63.00;46.50;24.75
78316;PMS7003;67572;50.930;18.276;2023-03-01T00:50:28;57.00;47.33;27.00
78316;PMS7003;67572;50.930;18.276;2023-03-01T00:53:34;52.50;44.00;28.00
78316;PMS7003;67572;50.930;18.276;2023-03-01T00:56:41;48.50;42.50;25.00
78316;PMS7003;67572;50.930;18.276;2023-03-01T00:59:46;41.00;36.33;22.67
78316;PMS7003;67572;50.930;18.276;2023-03-01T01:02:51;46.00;40.67;23.33
78316;PMS7003;67572;50.930;18.276;2023-03-01T01:05:56;48.67;38.67;21.00
78316;PMS7003;67572;50.930;18.276;2023-03-01T01:09:01;48.00;39.67;27.00
78316;PMS7003;67572;50.930;18.276;2023-03-01T01:12:11;48.00;43.33;24.67
78316;PMS7003;67572;50.930;18.276;2023-03-01T01:15:17;51.75;43.75;28.50
78316;PMS7003;67572;50.930;18.276;2023-03-01T01:18:22;46.50;38.50;24.00
78316;PMS7003;67572;50.930;18.276;2023-03-01T01:21:28;46.67;42.67;25.67
78316;PMS7003;67572;50.930;18.276;2023-03-01T01:24:32;46.00;45.00;30.00
78316;PMS7003;67572;50.930;18.276;2023-03-01T01:27:38;41.50;37.00;23.00
78316;PMS7003;67572;50.930;18.276;2023-03-01T01:30:42;29.00;28.00;19.00
78316;PMS7003;67572;50.930;18.276;2023-03-01T01:33:47;38.33;33.67;21.67
78316;PMS7003;67572;50.930;18.276;2023-03-01T01:36:53;40.75;34.75;23.00
78316;PMS7003;67572;50.930;18.276;2023-03-01T01:39:59;43.00;32.33;22.33
78316;PMS7003;67572;50.930;18.276;2023-03-01T01:43:10;53.00;45.00;24.50
78316;PMS7003;67572;50.930;18.276;2023-03-01T01:46:25;39.25;35.50;20.50
78316;PMS7003;67572;50.930;18.276;2023-03-01T01:49:35;50.00;41.00;25.50
78316;PMS7003;67572;50.930;18.276;2023-03-01T01:52:43;48.67;38.33;18.67
78316;PMS7003;67572;50.930;18.276;2023-03-01T01:55:53;37.00;36.00;28.00
78316;PMS7003;67572;50.930;18.276;2023-03-01T01:59:01;20.00;14.50;6.50
78316;PMS7003;67572;50.930;18.276;2023-03-01T02:02:07;35.20;32.40;22.80
78316;PMS7003;67572;50.930;18.276;2023-03-01T02:05:14;30.33;25.67;21.67
78316;PMS7003;67572;50.930;18.276;2023-03-01T02:08:32;44.75;39.75;24.75
78316;PMS7003;67572;50.930;18.276;2023-03-01T02:11:41;43.00;39.00;21.50
78316;PMS7003;67572;50.930;18.276;2023-03-01T02:14:49;44.00;33.50;25.00
78316;PMS7003;67572;50.930;18.276;2023-03-01T02:17:55;38.00;35.33;18.67
78316;PMS7003;67572;50.930;18.276;2023-03-01T02:21:03;45.40;41.20;29.60
78316;PMS7003;67572;50.930;18.276;2023-03-01T02:24:17;47.20;45.80;27.60
78316;PMS7003;67572;50.930;18.276;2023-03-01T02:27:37;66.67;51.33;30.67
78316;PMS7003;67572;50.930;18.276;2023-03-01T02:30:53;38.50;24.50;8.83
78316;PMS7003;67572;50.930;18.276;2023-03-01T02:34:17;47.33;43.33;30.00
78316;PMS7003;67572;50.930;18.276;2023-03-01T02:37:25;51.00;47.00;27.50
78316;PMS7003;67572;50.930;18.276;2023-03-01T02:40:31;63.33;46.67;30.67
78316;PMS7003;67572;50.930;18.276;2023-03-01T02:43:47;53.00;43.00;30.00
78316;PMS7003;67572;50.930;18.276;2023-03-01T02:46:55;48.33;38.67;24.00
78316;PMS7003;67572;50.930;18.276;2023-03-01T02:50:02;41.80;39.40;25.40
78316;PMS7003;67572;50.930;18.276;2023-03-01T02:53:23;52.67;43.00;25.00
78316;PMS7003;67572;50.930;18.276;2023-03-01T02:56:36;44.50;38.50;27.00
78316;PMS7003;67572;50.930;18.276;2023-03-01T02:59:42;48.75;41.00;25.50
78316;PMS7003;67572;50.930;18.276;2023-03-01T03:02:49;58.33;44.33;25.00
78316;PMS7003;67572;50.930;18.276;2023-03-01T03:05:58;46.40;38.60;27.00
78316;PMS7003;67572;50.930;18.276;2023-03-01T03:09:04;49.00;37.00;24.00
78316;PMS7003;67572;50.930;18.276;2023-03-01T03:12:10;49.00;40.00;22.00
78316;PMS7003;67572;50.930;18.276;2023-03-01T03:15:15;37.67;25.67;22.00
78316;PMS7003;67572;50.930;18.276;2023-03-01T03:18:23;46.67;38.33;24.67
78316;PMS7003;67572;50.930;18.276;2023-03-01T03:21:30;43.80;42.40;25.40
78316;PMS7003;67572;50.930;18.276;2023-03-01T03:24:35;49.00;39.75;21.75
78316;PMS7003;67572;50.930;18.276;2023-03-01T03:27:41;54.33;44.33;27.00
78316;PMS7003;67572;50.930;18.276;2023-03-01T03:30:47;41.00;37.00;24.00
78316;PMS7003;67572;50.930;18.276;2023-03-01T03:33:53;50.00;43.50;24.50
78316;PMS7003;67572;50.930;18.276;2023-03-01T03:36:58;42.00;34.00;21.00
78316;PMS7003;67572;50.930;18.276;2023-03-01T03:40:02;48.00;40.00;24.00
78316;PMS7003;67572;50.930;18.276;2023-03-01T03:43:18;47.00;40.33;27.33
78316;PMS7003;67572;50.930;18.276;2023-03-01T03:46:24;42.33;36.33;21.33
78316;PMS7003;67572;50.930;18.276;2023-03-01T03:49:30;44.00;38.00;24.50
78316;PMS7003;67572;50.930;18.276;2023-03-01T03:52:35;53.50;48.00;29.50
78316;PMS7003;67572;50.930;18.276;2023-03-01T03:55:41;59.33;45.50;27.17
78316;PMS7003;67572;50.930;18.276;2023-03-01T03:58:47;25.67;24.00;15.00
78316;PMS7003;67572;50.930;18.276;2023-03-01T04:01:51;33.67;29.33;12.00
78316;PMS7003;67572;50.930;18.276;2023-03-01T04:04:56;44.00;41.00;26.00
78316;PMS7003;67572;50.930;18.276;2023-03-01T04:08:02;50.00;39.67;22.67
78316;PMS7003;67572;50.930;18.276;2023-03-01T04:11:10;44.50;41.00;25.00
78316;PMS7003;67572;50.930;18.276;2023-03-01T04:14:35;50.00;42.00;30.00
78316;PMS7003;67572;50.930;18.276;2023-03-01T04:17:41;47.67;42.00;26.33
78316;PMS7003;67572;50.930;18.276;2023-03-01T04:20:48;42.50;37.00;23.00
78316;PMS7003;67572;50.930;18.276;2023-03-01T04:23:54;46.00;39.00;21.00
78316;PMS7003;67572;50.930;18.276;2023-03-01T04:27:00;50.33;45.33;30.00
78316;PMS7003;67572;50.930;18.276;2023-03-01T04:30:07;59.33;47.33;30.00
78316;PMS7003;67572;50.930;18.276;2023-03-01T04:33:12;56.67;45.33;27.00
78316;PMS7003;67572;50.930;18.276;2023-03-01T04:36:19;41.40;35.20;19.60
78316;PMS7003;67572;50.930;18.276;2023-03-01T04:39:26;49.67;45.00;28.00
78316;PMS7003;67572;50.930;18.276;2023-03-01T04:42:30;46.33;43.33;27.67
78316;PMS7003;67572;50.930;18.276;2023-03-01T04:45:35;60.67;42.67;24.67
78316;PMS7003;67572;50.930;18.276;2023-03-01T04:48:42;57.00;45.00;28.00
78316;PMS7003;67572;50.930;18.276;2023-03-01T04:51:49;24.67;17.00;3.00
78316;PMS7003;67572;50.930;18.276;2023-03-01T04:54:54;59.80;47.60;28.80
78316;PMS7003;67572;50.930;18.276;2023-03-01T04:57:57;51.50;45.00;30.00
78316;PMS7003;67572;50.930;18.276;2023-03-01T05:01:07;58.50;49.00;30.00
78316;PMS7003;67572;50.930;18.276;2023-03-01T05:04:18;56.60;45.20;25.20
78316;PMS7003;67572;50.930;18.276;2023-03-01T05:07:25;43.25;35.00;19.00
78316;PMS7003;67572;50.930;18.276;2023-03-01T05:10:30;50.00;45.00;27.00
78316;PMS7003;67572;50.930;18.276;2023-03-01T05:13:37;52.50;44.00;28.00
78316;PMS7003;67572;50.930;18.276;2023-03-01T05:16:42;39.20;33.40;22.80
78316;PMS7003;67572;50.930;18.276;2023-03-01T05:19:49;51.00;43.00;24.50
78316;PMS7003;67572;50.930;18.276;2023-03-01T05:22:56;62.20;48.00;25.40
78316;PMS7003;67572;50.930;18.276;2023-03-01T05:26:08;39.20;33.20;23.60
78316;PMS7003;67572;50.930;18.276;2023-03-01T05:29:34;59.00;39.00;23.00
78316;PMS7003;67572;50.930;18.276;2023-03-01T05:32:42;42.50;40.00;24.00
78316;PMS7003;67572;50.930;18.276;2023-03-01T05:35:48;45.50;42.50;27.00
78316;PMS7003;67572;50.930;18.276;2023-03-01T05:38:56;49.40;43.00;27.40
78316;PMS7003;67572;50.930;18.276;2023-03-01T05:42:01;54.00;45.00;30.00
78316;PMS7003;67572;50.930;18.276;2023-03-01T05:45:06;51.33;44.33;28.00
78316;PMS7003;67572;50.930;18.276;2023-03-01T05:48:12;55.00;42.00;27.00
78316;PMS7003;67572;50.930;18.276;2023-03-01T05:51:16;50.00;48.00;29.00
78316;PMS7003;67572;50.930;18.276;2023-03-01T05:54:23;54.50;47.00;26.00
78316;PMS7003;67572;50.930;18.276;2023-03-01T05:57:27;48.50;41.00;25.00
78316;PMS7003;67572;50.930;18.276;2023-03-01T06:00:33;57.00;48.00;31.00
78316;PMS7003;67572;50.930;18.276;2023-03-01T06:03:39;50.33;42.33;30.00
78316;PMS7003;67572;50.930;18.276;2023-03-01T06:06:44;51.67;46.33;28.67
78316;PMS7003;67572;50.930;18.276;2023-03-01T06:09:49;56.00;49.00;28.00
78316;PMS7003;67572;50.930;18.276;2023-03-01T06:12:54;45.33;40.33;30.00
78316;PMS7003;67572;50.930;18.276;2023-03-01T06:15:59;64.50;50.00;33.00
78316;PMS7003;67572;50.930;18.276;2023-03-01T06:19:05;47.75;42.75;27.00
78316;PMS7003;67572;50.930;18.276;2023-03-01T06:22:08;53.50;48.00;30.50
78316;PMS7003;67572;50.930;18.276;2023-03-01T06:25:17;51.60;47.60;29.40
78316;PMS7003;67572;50.930;18.276;2023-03-01T06:28:25;54.33;48.00;28.00
78316;PMS7003;67572;50.930;18.276;2023-03-01T06:35:54;50.00;44.00;30.00
78316;PMS7003;67572;50.930;18.276;2023-03-01T06:39:51;55.67;46.00;29.67
78316;PMS7003;67572;50.930;18.276;2023-03-01T06:51:48;57.40;45.40;27.40
78316;PMS7003;67572;50.930;18.276;2023-03-01T06:54:53;61.33;46.00;29.00
78316;PMS7003;67572;50.930;18.276;2023-03-01T07:02:26;50.20;43.40;29.20
78316;PMS7003;67572;50.930;18.276;2023-03-01T07:11:12;72.33;55.00;33.00
78316;PMS7003;67572;50.930;18.276;2023-03-01T07:20:36;70.00;52.67;33.00
78316;PMS7003;67572;50.930;18.276;2023-03-01T07:25:41;66.20;55.60;32.20
78316;PMS7003;67572;50.930;18.276;2023-03-01T07:28:46;68.33;54.00;34.00
78316;PMS7003;67572;50.930;18.276;2023-03-01T07:31:50;59.00;48.50;27.50
78316;PMS7003;67572;50.930;18.276;2023-03-01T07:34:54;67.00;48.50;30.50
78316;PMS7003;67572;50.930;18.276;2023-03-01T07:38:00;67.67;52.67;32.33
78316;PMS7003;67572;50.930;18.276;2023-03-01T07:41:07;55.67;48.67;30.00
78316;PMS7003;67572;50.930;18.276;2023-03-01T07:44:13;65.33;48.33;29.33
78316;PMS7003;67572;50.930;18.276;2023-03-01T07:47:19;58.67;51.00;32.33
78316;PMS7003;67572;50.930;18.276;2023-03-01T07:50:24;72.33;55.00;33.67
78316;PMS7003;67572;50.930;18.276;2023-03-01T07:53:30;70.67;54.67;33.00
78316;PMS7003;67572;50.930;18.276;2023-03-01T07:56:39;65.33;45.00;27.00
78316;PMS7003;67572;50.930;18.276;2023-03-01T07:59:45;69.67;53.33;33.00
78316;PMS7003;67572;50.930;18.276;2023-03-01T08:02:50;73.67;58.67;34.33
78316;PMS7003;67572;50.930;18.276;2023-03-01T08:05:58;70.67;57.00;35.33
78316;PMS7003;67572;50.930;18.276;2023-03-01T08:09:04;75.00;55.00;36.00
78316;PMS7003;67572;50.930;18.276;2023-03-01T08:12:12;70.00;54.00;34.00
78316;PMS7003;67572;50.930;18.276;2023-03-01T08:15:20;62.67;51.33;33.00
78316;PMS7003;67572;50.930;18.276;2023-03-01T08:18:26;63.33;51.00;34.67
78316;PMS7003;67572;50.930;18.276;2023-03-01T08:21:32;70.33;52.00;34.00
78316;PMS7003;67572;50.930;18.276;2023-03-01T08:24:39;69.33;51.67;33.67
78316;PMS7003;67572;50.930;18.276;2023-03-01T08:27:47;70.00;54.67;34.67
78316;PMS7003;67572;50.930;18.276;2023-03-01T08:30:53;60.67;53.33;33.00
78316;PMS7003;67572;50.930;18.276;2023-03-01T08:33:59;60.00;49.00;33.00
78316;PMS7003;67572;50.930;18.276;2023-03-01T08:37:06;66.33;49.67;31.00
78316;PMS7003;67572;50.930;18.276;2023-03-01T08:40:13;60.67;48.67;33.00
78316;PMS7003;67572;50.930;18.276;2023-03-01T08:43:19;48.50;40.50;24.50
78316;PMS7003;67572;50.930;18.276;2023-03-01T08:46:30;41.33;36.67;23.33
78316;PMS7003;67572;50.930;18.276;2023-03-01T08:49:37;52.00;45.00;28.67
78316;PMS7003;67572;50.930;18.276;2023-03-01T08:52:42;40.00;36.50;21.50
78316;PMS7003;67572;50.930;18.276;2023-03-01T08:55:48;43.00;37.67;25.00
78316;PMS7003;67572;50.930;18.276;2023-03-01T08:58:55;37.00;34.00;22.67
78316;PMS7003;67572;50.930;18.276;2023-03-01T09:02:01;34.00;33.33;22.67
78316;PMS7003;67572;50.930;18.276;2023-03-01T09:05:06;31.67;31.67;20.67
78316;PMS7003;67572;50.930;18.276;2023-03-01T09:08:12;41.00;34.00;22.00
78316;PMS7003;67572;50.930;18.276;2023-03-01T09:11:17;34.67;29.33;14.33
78316;PMS7003;67572;50.930;18.276;2023-03-01T09:14:25;32.67;27.33;20.00
78316;PMS7003;67572;50.930;18.276;2023-03-01T09:17:30;31.00;21.50;15.00
78316;PMS7003;67572;50.930;18.276;2023-03-01T09:20:35;18.00;15.00;10.00
78316;PMS7003;67572;50.930;18.276;2023-03-01T09:23:39;25.00;24.00;15.00
78316;PMS7003;67572;50.930;18.276;2023-03-01T09:26:46;29.00;27.33;17.33
78316;PMS7003;67572;50.930;18.276;2023-03-01T09:29:55;37.33;31.67;18.67
78316;PMS7003;67572;50.930;18.276;2023-03-01T09:33:00;30.67;30.00;18.00
78316;PMS7003;67572;50.930;18.276;2023-03-01T09:36:05;36.00;34.00;22.00
78316;PMS7003;67572;50.930;18.276;2023-03-01T09:39:13;29.00;25.00;18.50
78316;PMS7003;67572;50.930;18.276;2023-03-01T09:42:18;43.67;39.00;25.00
78316;PMS7003;67572;50.930;18.276;2023-03-01T09:45:29;37.33;36.33;24.00
78316;PMS7003;67572;50.930;18.276;2023-03-01T09:48:41;25.00;22.00;13.00
78316;PMS7003;67572;50.930;18.276;2023-03-01T09:51:55;34.00;29.00;16.00
78316;PMS7003;67572;50.930;18.276;2023-03-01T09:55:05;28.00;27.00;18.00
78316;PMS7003;67572;50.930;18.276;2023-03-01T09:58:28;33.50;27.50;18.00
78316;PMS7003;67572;50.930;18.276;2023-03-01T10:01:43;38.00;29.00;21.67
78316;PMS7003;67572;50.930;18.276;2023-03-01T10:04:57;29.67;26.33;18.00
78316;PMS7003;67572;50.930;18.276;2023-03-01T10:11:41;34.33;30.00;18.67
78316;PMS7003;67572;50.930;18.276;2023-03-01T10:14:51;28.00;25.00;12.00
78316;PMS7003;67572;50.930;18.276;2023-03-01T10:18:06;46.33;38.67;25.67
78316;PMS7003;67572;50.930;18.276;2023-03-01T10:21:18;53.33;48.00;30.00
78316;PMS7003;67572;50.930;18.276;2023-03-01T10:24:34;65.33;53.67;33.67
78316;PMS7003;67572;50.930;18.276;2023-03-01T10:27:42;57.00;48.00;30.00
78316;PMS7003;67572;50.930;18.276;2023-03-01T10:30:56;52.00;45.00;28.67
78316;PMS7003;67572;50.930;18.276;2023-03-01T10:34:08;44.33;35.67;22.00
78316;PMS7003;67572;50.930;18.276;2023-03-01T10:37:17;40.67;39.33;27.00
78316;PMS7003;67572;50.930;18.276;2023-03-01T10:40:25;52.00;45.67;29.33
78316;PMS7003;67572;50.930;18.276;2023-03-01T10:43:32;44.67;40.67;28.00
78316;PMS7003;67572;50.930;18.276;2023-03-01T10:46:48;44.67;41.33;27.67
78316;PMS7003;67572;50.930;18.276;2023-03-01T10:50:22;37.00;36.00;21.67
78316;PMS7003;67572;50.930;18.276;2023-03-01T10:53:29;43.67;39.00;28.33
78316;PMS7003;67572;50.930;18.276;2023-03-01T10:56:45;22.67;17.67;12.00
78316;PMS7003;67572;50.930;18.276;2023-03-01T11:00:00;42.67;36.00;23.67
78316;PMS7003;67572;50.930;18.276;2023-03-01T11:03:11;58.67;47.67;30.67
78316;PMS7003;67572;50.930;18.276;2023-03-01T11:06:22;26.00;20.00;11.00
78316;PMS7003;67572;50.930;18.276;2023-03-01T11:09:30;27.00;21.00;17.00
78316;PMS7003;67572;50.930;18.276;2023-03-01T11:12:42;35.67;27.67;20.33
78316;PMS7003;67572;50.930;18.276;2023-03-01T11:15:57;43.67;39.67;27.00
78316;PMS7003;67572;50.930;18.276;2023-03-01T11:19:13;29.33;27.33;17.33
78316;PMS7003;67572;50.930;18.276;2023-03-01T11:22:23;35.33;29.67;21.33
78316;PMS7003;67572;50.930;18.276;2023-03-01T11:25:29;31.00;27.00;18.00
78316;PMS7003;67572;50.930;18.276;2023-03-01T11:28:39;31.67;30.00;20.33
78316;PMS7003;67572;50.930;18.276;2023-03-01T11:31:46;30.50;27.50;19.00
78316;PMS7003;67572;50.930;18.276;2023-03-01T11:35:00;37.00;33.67;19.00
78316;PMS7003;67572;50.930;18.276;2023-03-01T11:38:15;34.67;31.67;20.67
78316;PMS7003;67572;50.930;18.276;2023-03-01T11:41:26;35.67;35.67;21.67
78316;PMS7003;67572;50.930;18.276;2023-03-01T11:44:36;28.00;28.00;18.00
78316;PMS7003;67572;50.930;18.276;2023-03-01T11:47:50;24.67;22.67;12.33
78316;PMS7003;67572;50.930;18.276;2023-03-01T11:51:05;27.00;18.67;10.33
78316;PMS7003;67572;50.930;18.276;2023-03-01T11:54:20;47.33;43.67;25.00
78316;PMS7003;67572;50.930;18.276;2023-03-01T11:57:40;38.00;33.00;24.00
78316;PMS7003;67572;50.930;18.276;2023-03-01T12:00:56;28.00;24.50;15.50
78316;PMS7003;67572;50.930;18.276;2023-03-01T12:04:20;40.00;37.67;24.00
78316;PMS7003;67572;50.930;18.276;2023-03-01T12:07:41;45.00;39.00;24.33
78316;PMS7003;67572;50.930;18.276;2023-03-01T12:10:52;30.00;27.67;19.00
78316;PMS7003;67572;50.930;18.276;2023-03-01T12:17:45;35.67;28.67;21.00
78316;PMS7003;67572;50.930;18.276;2023-03-01T12:21:02;39.33;33.00;23.33
78316;PMS7003;67572;50.930;18.276;2023-03-01T12:24:23;36.67;30.33;20.67
78316;PMS7003;67572;50.930;18.276;2023-03-01T12:28:01;32.33;28.67;21.33
78316;PMS7003;67572;50.930;18.276;2023-03-01T12:39:19;56.33;45.00;30.00
78316;PMS7003;67572;50.930;18.276;2023-03-01T12:42:32;31.00;27.50;18.50
78316;PMS7003;67572;50.930;18.276;2023-03-01T12:45:47;34.00;27.67;21.00
78316;PMS7003;67572;50.930;18.276;2023-03-01T12:48:59;39.67;32.67;18.33
78316;PMS7003;67572;50.930;18.276;2023-03-01T12:52:13;47.33;42.67;29.33
78316;PMS7003;67572;50.930;18.276;2023-03-01T12:55:26;49.33;44.33;24.33
78316;PMS7003;67572;50.930;18.276;2023-03-01T12:58:35;40.33;35.00;22.00
78316;PMS7003;67572;50.930;18.276;2023-03-01T13:01:56;37.00;27.75;23.00
78316;PMS7003;67572;50.930;18.276;2023-03-01T13:05:18;36.33;30.00;22.00
78316;PMS7003;67572;50.930;18.276;2023-03-01T13:08:29;50.67;42.33;28.67
78316;PMS7003;67572;50.930;18.276;2023-03-01T13:11:42;59.50;47.25;29.25
78316;PMS7003;67572;50.930;18.276;2023-03-01T13:14:47;37.67;33.67;25.67
78316;PMS7003;67572;50.930;18.276;2023-03-01T13:17:54;37.00;32.33;26.33
78316;PMS7003;67572;50.930;18.276;2023-03-01T13:21:03;68.33;54.67;35.33
78316;PMS7003;67572;50.930;18.276;2023-03-01T13:24:25;41.33;34.00;27.00
78316;PMS7003;67572;50.930;18.276;2023-03-01T13:27:32;26.00;21.67;13.00
78316;PMS7003;67572;50.930;18.276;2023-03-01T13:30:41;33.67;32.33;19.67
78316;PMS7003;67572;50.930;18.276;2023-03-01T13:33:48;51.67;42.00;25.67
78316;PMS7003;67572;50.930;18.276;2023-03-01T13:36:53;43.50;36.25;23.50
78316;PMS7003;67572;50.930;18.276;2023-03-01T13:43:54;19.67;15.67;9.33
78316;PMS7003;67572;50.930;18.276;2023-03-01T13:46:59;36.00;30.67;20.67
78316;PMS7003;67572;50.930;18.276;2023-03-01T13:50:20;39.00;30.67;21.33
78316;PMS7003;67572;50.930;18.276;2023-03-01T13:53:29;32.00;27.25;19.50
78316;PMS7003;67572;50.930;18.276;2023-03-01T13:56:39;40.00;28.67;18.00
78316;PMS7003;67572;50.930;18.276;2023-03-01T13:59:46;21.33;15.67;9.00
78316;PMS7003;67572;50.930;18.276;2023-03-01T14:02:59;35.67;32.00;22.67
78316;PMS7003;67572;50.930;18.276;2023-03-01T14:06:12;30.33;27.33;20.33
78316;PMS7003;67572;50.930;18.276;2023-03-01T14:09:24;34.33;33.67;24.33
78316;PMS7003;67572;50.930;18.276;2023-03-01T14:12:38;36.00;34.67;19.00
78316;PMS7003;67572;50.930;18.276;2023-03-01T14:15:50;44.67;38.33;24.00
78316;PMS7003;67572;50.930;18.276;2023-03-01T14:19:15;30.75;25.50;18.50
78316;PMS7003;67572;50.930;18.276;2023-03-01T14:22:36;70.00;56.33;36.00
78316;PMS7003;67572;50.930;18.276;2023-03-01T14:25:47;38.33;34.67;24.00
78316;PMS7003;67572;50.930;18.276;2023-03-01T14:28:54;40.00;34.00;22.67
78316;PMS7003;67572;50.930;18.276;2023-03-01T14:35:26;37.00;33.33;21.33
78316;PMS7003;67572;50.930;18.276;2023-03-01T14:38:36;33.33;27.33;18.67
78316;PMS7003;67572;50.930;18.276;2023-03-01T14:41:42;28.33;22.00;9.67
78316;PMS7003;67572;50.930;18.276;2023-03-01T14:44:47;24.50;21.50;15.00
78316;PMS7003;67572;50.930;18.276;2023-03-01T14:47:54;22.00;19.00;14.33
78316;PMS7003;67572;50.930;18.276;2023-03-01T14:51:04;46.33;38.33;24.00
78316;PMS7003;67572;50.930;18.276;2023-03-01T14:54:18;30.00;28.00;19.00
78316;PMS7003;67572;50.930;18.276;2023-03-01T14:57:26;25.00;25.00;18.00
78316;PMS7003;67572;50.930;18.276;2023-03-01T15:00:31;31.67;26.00;18.33
78316;PMS7003;67572;50.930;18.276;2023-03-01T15:03:40;27.00;24.00;15.00
78316;PMS7003;67572;50.930;18.276;2023-03-01T15:06:47;23.00;23.00;14.00
78316;PMS7003;67572;50.930;18.276;2023-03-01T15:09:57;33.00;28.67;20.33
78316;PMS7003;67572;50.930;18.276;2023-03-01T15:13:10;31.75;27.75;20.00
78316;PMS7003;67572;50.930;18.276;2023-03-01T15:16:17;43.67;37.67;16.33
78316;PMS7003;67572;50.930;18.276;2023-03-01T15:19:24;38.67;31.67;24.00
78316;PMS7003;67572;50.930;18.276;2023-03-01T15:22:31;53.33;45.33;29.33
78316;PMS7003;67572;50.930;18.276;2023-03-01T15:25:37;39.33;37.67;22.67
78316;PMS7003;67572;50.930;18.276;2023-03-01T15:28:49;30.00;27.67;18.33
78316;PMS7003;67572;50.930;18.276;2023-03-01T15:31:59;71.67;57.67;36.00
78316;PMS7003;67572;50.930;18.276;2023-03-01T15:38:54;33.67;31.33;21.00
78316;PMS7003;67572;50.930;18.276;2023-03-01T15:42:02;25.67;21.67;15.00
78316;PMS7003;67572;50.930;18.276;2023-03-01T15:45:08;18.00;18.00;12.67
78316;PMS7003;67572;50.930;18.276;2023-03-01T15:48:14;21.33;14.67;10.00
78316;PMS7003;67572;50.930;18.276;2023-03-01T15:51:32;22.33;19.17;15.00
78316;PMS7003;67572;50.930;18.276;2023-03-01T15:54:38;25.00;18.50;12.00
78316;PMS7003;67572;50.930;18.276;2023-03-01T15:57:44;16.00;15.00;12.00
78316;PMS7003;67572;50.930;18.276;2023-03-01T16:00:48;19.50;19.50;14.00
78316;PMS7003;67572;50.930;18.276;2023-03-01T16:04:03;37.00;27.00;13.00
78316;PMS7003;67572;50.930;18.276;2023-03-01T16:07:08;28.00;28.00;18.00
78316;PMS7003;67572;50.930;18.276;2023-03-01T16:10:12;27.00;24.00;15.00
78316;PMS7003;67572;50.930;18.276;2023-03-01T16:13:18;23.67;15.33;10.00
78316;PMS7003;67572;50.930;18.276;2023-03-01T16:16:25;16.67;16.00;12.50
78316;PMS7003;67572;50.930;18.276;2023-03-01T16:19:30;13.40;12.40;8.60
78316;PMS7003;67572;50.930;18.276;2023-03-01T16:22:37;17.50;14.83;9.67
78316;PMS7003;67572;50.930;18.276;2023-03-01T16:25:41;14.00;14.00;9.50
78316;PMS7003;67572;50.930;18.276;2023-03-01T16:28:47;22.00;19.00;13.00
78316;PMS7003;67572;50.930;18.276;2023-03-01T16:31:51;18.33;16.00;12.33
78316;PMS7003;67572;50.930;18.276;2023-03-01T16:34:56;15.00;15.00;9.33
78316;PMS7003;67572;50.930;18.276;2023-03-01T16:38:00;12.00;12.00;9.00
78316;PMS7003;67572;50.930;18.276;2023-03-01T16:41:06;12.60;12.60;9.00
78316;PMS7003;67572;50.930;18.276;2023-03-01T16:44:16;14.00;14.00;11.00
78316;PMS7003;67572;50.930;18.276;2023-03-01T16:47:21;15.67;15.67;9.67
78316;PMS7003;67572;50.930;18.276;2023-03-01T16:50:25;13.00;13.00;10.00
78316;PMS7003;67572;50.930;18.276;2023-03-01T16:53:32;16.00;14.50;11.17
78316;PMS7003;67572;50.930;18.276;2023-03-01T16:56:37;13.00;13.00;10.00
78316;PMS7003;67572;50.930;18.276;2023-03-01T16:59:43;17.00;13.00;9.00
78316;PMS7003;67572;50.930;18.276;2023-03-01T17:02:50;16.83;13.00;10.33
78316;PMS7003;67572;50.930;18.276;2023-03-01T17:05:55;13.00;13.00;9.50
78316;PMS7003;67572;50.930;18.276;2023-03-01T17:08:59;10.00;9.50;9.00
78316;PMS7003;67572;50.930;18.276;2023-03-01T17:12:03;11.00;11.00;9.00
78316;PMS7003;67572;50.930;18.276;2023-03-01T17:15:09;12.50;10.00;9.00
78316;PMS7003;67572;50.930;18.276;2023-03-01T17:18:16;20.33;15.67;12.17
78316;PMS7003;67572;50.930;18.276;2023-03-01T17:21:20;19.00;12.00;8.00
78316;PMS7003;67572;50.930;18.276;2023-03-01T17:24:25;18.67;15.67;12.00
78316;PMS7003;67572;50.930;18.276;2023-03-01T17:27:30;28.67;25.00;15.33
78316;PMS7003;67572;50.930;18.276;2023-03-01T17:30:38;34.67;29.00;20.67
78316;PMS7003;67572;50.930;18.276;2023-03-01T17:33:46;56.00;45.00;29.33
78316;PMS7003;67572;50.930;18.276;2023-03-01T17:36:52;40.33;34.67;21.00
78316;PMS7003;67572;50.930;18.276;2023-03-01T17:39:57;30.67;28.00;14.33
78316;PMS7003;67572;50.930;18.276;2023-03-01T17:43:01;42.00;31.67;21.00
78316;PMS7003;67572;50.930;18.276;2023-03-01T17:46:07;27.50;26.00;17.00
78316;PMS7003;67572;50.930;18.276;2023-03-01T17:49:11;25.67;21.67;15.33
78316;PMS7003;67572;50.930;18.276;2023-03-01T17:52:16;24.00;23.33;15.67
78316;PMS7003;67572;50.930;18.276;2023-03-01T17:55:26;20.20;14.20;9.20
78316;PMS7003;67572;50.930;18.276;2023-03-01T17:58:31;26.67;21.33;14.33
78316;PMS7003;67572;50.930;18.276;2023-03-01T18:01:41;22.67;18.50;13.00
78316;PMS7003;67572;50.930;18.276;2023-03-01T18:04:47;24.00;18.83;12.50
78316;PMS7003;67572;50.930;18.276;2023-03-01T18:07:52;21.67;15.67;13.00
78316;PMS7003;67572;50.930;18.276;2023-03-01T18:10:57;18.33;17.33;10.67
78316;PMS7003;67572;50.930;18.276;2023-03-01T18:14:02;28.33;19.67;13.00
78316;PMS7003;67572;50.930;18.276;2023-03-01T18:17:09;21.00;17.00;11.33
78316;PMS7003;67572;50.930;18.276;2023-03-01T18:20:14;22.00;17.67;13.00